sensor_id;sensor_type;location;lat;lon;timestamp;P1;durP1;ratioP1;P2;durP2;ratioP2
13764;SDS011;6953;48.810;9.204;2023-04-06T00:01:24;1.00;;;1.00;;
13764;SDS011;6953;48.810;9.204;2023-04-06T00:03:50;0.90;;;0.90;;
13764;SDS011;6953;48.810;9.204;2023-04-06T00:06:15;0.80;;;0.80;;
13764;SDS011;6953;48.810;9.204;2023-04-06T00:08:41;0.83;;;0.83;;
13764;SDS011;6953;48.810;9.204;2023-04-06T00:11:06;0.87;;;0.87;;
13764;SDS011;6953;48.810;9.204;2023-04-06T00:13:31;1.00;;;1.00;;
13764;SDS011;6953;48.810;9.204;2023-04-06T00:15:57;0.70;;;0.70;;
13764;SDS011;6953;48.810;9.204;2023-04-06T00:18:22;1.00;;;1.00;;
13764;SDS011;6953;48.810;9.204;2023-04-06T00:20:47;0.80;;;0.80;;
13764;SDS011;6953;48.810;9.204;2023-04-06T00:23:13;0.90;;;0.90;;
13764;SDS011;6953;48.810;9.204;2023-04-06T00:25:38;0.80;;;0.80;;
13764;SDS011;6953;48.810;9.204;2023-04-06T00:28:03;0.77;;;0.77;;
13764;SDS011;6953;48.810;9.204;2023-04-06T00:30:29;0.90;;;0.90;;
13764;SDS011;6953;48.810;9.204;2023-04-06T00:32:54;0.70;;;0.70;;
13764;SDS011;6953;48.810;9.204;2023-04-06T00:35:20;0.90;;;0.90;;
13764;SDS011;6953;48.810;9.204;2023-04-06T00:37:46;0.80;;;0.80;;
13764;SDS011;6953;48.810;9.204;2023-04-06T00:40:12;0.80;;;0.80;;
13764;SDS011;6953;48.810;9.204;2023-04-06T00:42:38;0.80;;;0.80;;
13764;SDS011;6953;48.810;9.204;2023-04-06T00:45:03;0.70;;;0.70;;
13764;SDS011;6953;48.810;9.204;2023-04-06T00:47:29;0.80;;;0.80;;
13764;SDS011;6953;48.810;9.204;2023-04-06T00:49:54;0.80;;;0.80;;
13764;SDS011;6953;48.810;9.204;2023-04-06T00:52:20;0.80;;;0.80;;
13764;SDS011;6953;48.810;9.204;2023-04-06T00:54:45;0.80;;;0.80;;
13764;SDS011;6953;48.810;9.204;2023-04-06T00:57:11;0.80;;;0.80;;
13764;SDS011;6953;48.810;9.204;2023-04-06T00:59:37;0.93;;;0.93;;
13764;SDS011;6953;48.810;9.204;2023-04-06T01:02:03;0.90;;;0.90;;
13764;SDS011;6953;48.810;9.204;2023-04-06T01:04:29;0.80;;;0.80;;
13764;SDS011;6953;48.810;9.204;2023-04-06T01:06:55;0.80;;;0.80;;
13764;SDS011;6953;48.810;9.204;2023-04-06T01:09:20;0.87;;;0.87;;
13764;SDS011;6953;48.810;9.204;2023-04-06T01:11:46;0.90;;;0.90;;
13764;SDS011;6953;48.810;9.204;2023-04-06T01:14:11;0.80;;;0.80;;
13764;SDS011;6953;48.810;9.204;2023-04-06T01:16:36;0.90;;;0.90;;
13764;SDS011;6953;48.810;9.204;2023-04-06T01:21:53;1.00;;;1.00;;
13764;SDS011;6953;48.810;9.204;2023-04-06T01:24:18;0.90;;;0.90;;
13764;SDS011;6953;48.810;9.204;2023-04-06T01:26:44;0.80;;;0.80;;
13764;SDS011;6953;48.810;9.204;2023-04-06T01:29:10;0.80;;;0.80;;
13764;SDS011;6953;48.810;9.204;2023-04-06T01:31:35;0.70;;;0.70;;
13764;SDS011;6953;48.810;9.204;2023-04-06T01:34:00;0.80;;;0.80;;
13764;SDS011;6953;48.810;9.204;2023-04-06T01:36:26;0.90;;;0.90;;
13764;SDS011;6953;48.810;9.204;2023-04-06T01:38:51;0.90;;;0.90;;
13764;SDS011;6953;48.810;9.204;2023-04-06T01:41:17;0.80;;;0.80;;
13764;SDS011;6953;48.810;9.204;2023-04-06T01:43:42;0.80;;;0.80;;
13764;SDS011;6953;48.810;9.204;2023-04-06T01:46:09;0.90;;;0.90;;
13764;SDS011;6953;48.810;9.204;2023-04-06T01:48:35;1.00;;;1.00;;
13764;SDS011;6953;48.810;9.204;2023-04-06T01:51:01;1.10;;;1.10;;
13764;SDS011;6953;48.810;9.204;2023-04-06T01:53:26;0.90;;;0.90;;
13764;SDS011;6953;48.810;9.204;2023-04-06T01:55:51;0.87;;;0.87;;
13764;SDS011;6953;48.810;9.204;2023-04-06T01:58:17;0.80;;;0.80;;
13764;SDS011;6953;48.810;9.204;2023-04-06T02:00:42;0.90;;;0.90;;
13764;SDS011;6953;48.810;9.204;2023-04-06T02:03:07;0.80;;;0.80;;
13764;SDS011;6953;48.810;9.204;2023-04-06T02:05:33;1.00;;;1.00;;
13764;SDS011;6953;48.810;9.204;2023-04-06T02:08:03;0.90;;;0.90;;
13764;SDS011;6953;48.810;9.204;2023-04-06T02:10:29;1.40;;;1.40;;
13764;SDS011;6953;48.810;9.204;2023-04-06T02:12:55;1.30;;;1.30;;
13764;SDS011;6953;48.810;9.204;2023-04-06T02:15:20;1.23;;;1.23;;
13764;SDS011;6953;48.810;9.204;2023-04-06T02:17:45;1.37;;;1.37;;
13764;SDS011;6953;48.810;9.204;2023-04-06T02:20:11;1.20;;;1.20;;
13764;SDS011;6953;48.810;9.204;2023-04-06T02:22:36;1.50;;;1.50;;
13764;SDS011;6953;48.810;9.204;2023-04-06T02:25:01;1.30;;;1.30;;
13764;SDS011;6953;48.810;9.204;2023-04-06T02:27:27;1.20;;;1.20;;
13764;SDS011;6953;48.810;9.204;2023-04-06T02:29:52;1.13;;;1.13;;
13764;SDS011;6953;48.810;9.204;2023-04-06T02:32:18;1.40;;;1.40;;
13764;SDS011;6953;48.810;9.204;2023-04-06T02:34:43;1.20;;;1.20;;
13764;SDS011;6953;48.810;9.204;2023-04-06T02:37:08;1.10;;;1.10;;
13764;SDS011;6953;48.810;9.204;2023-04-06T02:39:34;1.37;;;1.37;;
13764;SDS011;6953;48.810;9.204;2023-04-06T02:41:59;1.13;;;1.13;;
13764;SDS011;6953;48.810;9.204;2023-04-06T02:44:25;1.20;;;1.20;;
13764;SDS011;6953;48.810;9.204;2023-04-06T02:46:50;1.40;;;1.40;;
13764;SDS011;6953;48.810;9.204;2023-04-06T02:49:16;1.20;;;1.20;;
13764;SDS011;6953;48.810;9.204;2023-04-06T02:51:41;1.30;;;1.30;;
13764;SDS011;6953;48.810;9.204;2023-04-06T02:54:06;1.10;;;1.10;;
13764;SDS011;6953;48.810;9.204;2023-04-06T02:56:32;1.37;;;1.37;;
13764;SDS011;6953;48.810;9.204;2023-04-06T02:58:57;1.10;;;1.10;;
13764;SDS011;6953;48.810;9.204;2023-04-06T03:01:22;1.10;;;1.10;;
13764;SDS011;6953;48.810;9.204;2023-04-06T03:03:47;1.20;;;1.20;;
13764;SDS011;6953;48.810;9.204;2023-04-06T03:06:13;1.47;;;1.47;;
13764;SDS011;6953;48.810;9.204;2023-04-06T03:08:38;1.20;;;1.20;;
13764;SDS011;6953;48.810;9.204;2023-04-06T03:11:03;1.30;;;1.30;;
13764;SDS011;6953;48.810;9.204;2023-04-06T03:13:29;1.30;;;1.30;;
13764;SDS011;6953;48.810;9.204;2023-04-06T03:15:54;1.27;;;1.27;;
13764;SDS011;6953;48.810;9.204;2023-04-06T03:18:24;1.37;;;1.37;;
13764;SDS011;6953;48.810;9.204;2023-04-06T03:20:50;1.20;;;1.20;;
13764;SDS011;6953;48.810;9.204;2023-04-06T03:23:16;1.60;;;1.60;;
13764;SDS011;6953;48.810;9.204;2023-04-06T03:25:41;1.30;;;1.30;;
13764;SDS011;6953;48.810;9.204;2023-04-06T03:28:06;1.27;;;1.27;;
13764;SDS011;6953;48.810;9.204;2023-04-06T03:30:32;1.30;;;1.30;;
13764;SDS011;6953;48.810;9.204;2023-04-06T03:32:58;1.20;;;1.20;;
13764;SDS011;6953;48.810;9.204;2023-04-06T03:35:24;1.20;;;1.20;;
13764;SDS011;6953;48.810;9.204;2023-04-06T03:37:49;1.43;;;1.43;;
13764;SDS011;6953;48.810;9.204;2023-04-06T03:40:15;1.30;;;1.30;;
13764;SDS011;6953;48.810;9.204;2023-04-06T03:42:41;1.10;;;1.10;;
13764;SDS011;6953;48.810;9.204;2023-04-06T03:45:06;1.30;;;1.30;;
13764;SDS011;6953;48.810;9.204;2023-04-06T03:47:32;1.33;;;1.33;;
13764;SDS011;6953;48.810;9.204;2023-04-06T03:49:57;1.50;;;1.50;;
13764;SDS011;6953;48.810;9.204;2023-04-06T03:52:23;1.27;;;1.27;;
13764;SDS011;6953;48.810;9.204;2023-04-06T03:54:48;1.30;;;1.30;;
13764;SDS011;6953;48.810;9.204;2023-04-06T03:57:14;1.33;;;1.33;;
13764;SDS011;6953;48.810;9.204;2023-04-06T03:59:39;1.30;;;1.30;;
13764;SDS011;6953;48.810;9.204;2023-04-06T04:02:05;1.37;;;1.37;;
13764;SDS011;6953;48.810;9.204;2023-04-06T04:04:30;1.33;;;1.33;;
13764;SDS011;6953;48.810;9.204;2023-04-06T04:06:55;1.40;;;1.40;;
13764;SDS011;6953;48.810;9.204;2023-04-06T04:09:21;1.30;;;1.30;;
13764;SDS011;6953;48.810;9.204;2023-04-06T04:11:47;1.40;;;1.40;;
13764;SDS011;6953;48.810;9.204;2023-04-06T04:14:13;1.37;;;1.37;;
13764;SDS011;6953;48.810;9.204;2023-04-06T04:16:38;1.23;;;1.23;;
13764;SDS011;6953;48.810;9.204;2023-04-06T04:19:04;1.30;;;1.30;;
13764;SDS011;6953;48.810;9.204;2023-04-06T04:21:30;1.43;;;1.43;;
13764;SDS011;6953;48.810;9.204;2023-04-06T04:23:56;1.50;;;1.50;;
13764;SDS011;6953;48.810;9.204;2023-04-06T04:26:21;1.50;;;1.50;;
13764;SDS011;6953;48.810;9.204;2023-04-06T04:28:47;1.43;;;1.43;;
13764;SDS011;6953;48.810;9.204;2023-04-06T04:31:12;1.27;;;1.27;;
13764;SDS011;6953;48.810;9.204;2023-04-06T04:33:37;1.10;;;1.10;;
13764;SDS011;6953;48.810;9.204;2023-04-06T04:36:03;1.50;;;1.50;;
13764;SDS011;6953;48.810;9.204;2023-04-06T04:38:28;1.53;;;1.53;;
13764;SDS011;6953;48.810;9.204;2023-04-06T04:40:54;1.33;;;1.33;;
13764;SDS011;6953;48.810;9.204;2023-04-06T04:43:19;1.30;;;1.30;;
13764;SDS011;6953;48.810;9.204;2023-04-06T04:45:45;1.37;;;1.37;;
13764;SDS011;6953;48.810;9.204;2023-04-06T04:48:10;1.50;;;1.50;;
13764;SDS011;6953;48.810;9.204;2023-04-06T04:50:35;1.10;;;1.10;;
13764;SDS011;6953;48.810;9.204;2023-04-06T04:53:01;1.50;;;1.50;;
13764;SDS011;6953;48.810;9.204;2023-04-06T04:55:27;1.50;;;1.50;;
13764;SDS011;6953;48.810;9.204;2023-04-06T04:57:52;1.40;;;1.40;;
13764;SDS011;6953;48.810;9.204;2023-04-06T05:00:18;1.40;;;1.40;;
13764;SDS011;6953;48.810;9.204;2023-04-06T05:02:43;1.60;;;1.60;;
13764;SDS011;6953;48.810;9.204;2023-04-06T05:05:09;1.43;;;1.43;;
13764;SDS011;6953;48.810;9.204;2023-04-06T05:07:34;1.40;;;1.40;;
13764;SDS011;6953;48.810;9.204;2023-04-06T05:09:59;1.40;;;1.40;;
13764;SDS011;6953;48.810;9.204;2023-04-06T05:12:25;1.50;;;1.50;;
13764;SDS011;6953;48.810;9.204;2023-04-06T05:14:52;1.43;;;1.43;;
13764;SDS011;6953;48.810;9.204;2023-04-06T05:17:18;1.10;;;1.10;;
13764;SDS011;6953;48.810;9.204;2023-04-06T05:19:43;1.37;;;1.37;;
13764;SDS011;6953;48.810;9.204;2023-04-06T05:22:09;1.40;;;1.40;;
13764;SDS011;6953;48.810;9.204;2023-04-06T05:24:34;1.50;;;1.50;;
13764;SDS011;6953;48.810;9.204;2023-04-06T05:27:00;1.20;;;1.20;;
13764;SDS011;6953;48.810;9.204;2023-04-06T05:29:25;1.20;;;1.20;;
13764;SDS011;6953;48.810;9.204;2023-04-06T05:31:51;1.30;;;1.30;;
13764;SDS011;6953;48.810;9.204;2023-04-06T05:34:16;1.50;;;1.50;;
13764;SDS011;6953;48.810;9.204;2023-04-06T05:36:42;1.40;;;1.40;;
13764;SDS011;6953;48.810;9.204;2023-04-06T05:39:07;1.60;;;1.60;;
13764;SDS011;6953;48.810;9.204;2023-04-06T05:41:32;1.20;;;1.20;;
13764;SDS011;6953;48.810;9.204;2023-04-06T05:43:58;1.40;;;1.40;;
13764;SDS011;6953;48.810;9.204;2023-04-06T05:46:23;1.10;;;1.10;;
13764;SDS011;6953;48.810;9.204;2023-04-06T05:48:49;1.30;;;1.30;;
13764;SDS011;6953;48.810;9.204;2023-04-06T05:51:14;1.27;;;1.27;;
13764;SDS011;6953;48.810;9.204;2023-04-06T05:53:39;1.30;;;1.30;;
13764;SDS011;6953;48.810;9.204;2023-04-06T05:56:05;1.40;;;1.40;;
13764;SDS011;6953;48.810;9.204;2023-04-06T05:58:31;1.40;;;1.40;;
13764;SDS011;6953;48.810;9.204;2023-04-06T06:00:57;1.43;;;1.43;;
13764;SDS011;6953;48.810;9.204;2023-04-06T06:03:23;1.20;;;1.20;;
13764;SDS011;6953;48.810;9.204;2023-04-06T06:05:48;1.33;;;1.33;;
13764;SDS011;6953;48.810;9.204;2023-04-06T06:08:14;1.40;;;1.40;;
13764;SDS011;6953;48.810;9.204;2023-04-06T06:10:39;1.10;;;1.10;;
13764;SDS011;6953;48.810;9.204;2023-04-06T06:13:05;1.20;;;1.20;;
13764;SDS011;6953;48.810;9.204;2023-04-06T06:15:30;1.10;;;1.10;;
13764;SDS011;6953;48.810;9.204;2023-04-06T06:17:56;1.13;;;1.13;;
13764;SDS011;6953;48.810;9.204;2023-04-06T06:20:21;0.53;;;0.53;;
13764;SDS011;6953;48.810;9.204;2023-04-06T06:22:47;0.60;;;0.60;;
13764;SDS011;6953;48.810;9.204;2023-04-06T06:25:12;1.00;;;1.00;;
13764;SDS011;6953;48.810;9.204;2023-04-06T06:27:38;1.00;;;1.00;;
13764;SDS011;6953;48.810;9.204;2023-04-06T06:30:03;0.90;;;0.90;;
13764;SDS011;6953;48.810;9.204;2023-04-06T06:32:29;0.90;;;0.90;;
13764;SDS011;6953;48.810;9.204;2023-04-06T06:34:55;0.50;;;0.50;;
13764;SDS011;6953;48.810;9.204;2023-04-06T06:37:20;0.60;;;0.60;;
13764;SDS011;6953;48.810;9.204;2023-04-06T06:39:45;0.80;;;0.80;;
13764;SDS011;6953;48.810;9.204;2023-04-06T06:42:11;0.70;;;0.70;;
13764;SDS011;6953;48.810;9.204;2023-04-06T06:44:36;0.70;;;0.70;;
13764;SDS011;6953;48.810;9.204;2023-04-06T06:47:01;0.50;;;0.50;;
13764;SDS011;6953;48.810;9.204;2023-04-06T06:49:27;0.60;;;0.60;;
13764;SDS011;6953;48.810;9.204;2023-04-06T06:51:52;0.60;;;0.60;;
13764;SDS011;6953;48.810;9.204;2023-04-06T06:54:17;0.50;;;0.50;;
13764;SDS011;6953;48.810;9.204;2023-04-06T06:56:43;0.32;;;0.32;;
13764;SDS011;6953;48.810;9.204;2023-04-06T06:59:08;0.40;;;0.40;;
13764;SDS011;6953;48.810;9.204;2023-04-06T07:01:33;0.30;;;0.30;;
13764;SDS011;6953;48.810;9.204;2023-04-06T07:03:59;0.30;;;0.30;;
13764;SDS011;6953;48.810;9.204;2023-04-06T07:06:25;0.40;;;0.40;;
13764;SDS011;6953;48.810;9.204;2023-04-06T07:08:50;0.30;;;0.30;;
13764;SDS011;6953;48.810;9.204;2023-04-06T07:11:15;0.40;;;0.40;;
13764;SDS011;6953;48.810;9.204;2023-04-06T07:13:41;0.22;;;0.22;;
13764;SDS011;6953;48.810;9.204;2023-04-06T07:16:08;0.40;;;0.40;;
13764;SDS011;6953;48.810;9.204;2023-04-06T07:18:33;0.30;;;0.30;;
13764;SDS011;6953;48.810;9.204;2023-04-06T07:20:59;0.30;;;0.30;;
13764;SDS011;6953;48.810;9.204;2023-04-06T07:23:24;0.30;;;0.30;;
13764;SDS011;6953;48.810;9.204;2023-04-06T07:25:49;0.30;;;0.30;;
13764;SDS011;6953;48.810;9.204;2023-04-06T07:28:17;0.30;;;0.30;;
13764;SDS011;6953;48.810;9.204;2023-04-06T07:30:42;0.30;;;0.30;;
13764;SDS011;6953;48.810;9.204;2023-04-06T07:33:08;0.30;;;0.30;;
13764;SDS011;6953;48.810;9.204;2023-04-06T07:35:33;0.20;;;0.20;;
13764;SDS011;6953;48.810;9.204;2023-04-06T07:37:59;0.30;;;0.30;;
13764;SDS011;6953;48.810;9.204;2023-04-06T07:40:25;0.20;;;0.20;;
13764;SDS011;6953;48.810;9.204;2023-04-06T07:42:51;0.20;;;0.20;;
13764;SDS011;6953;48.810;9.204;2023-04-06T07:45:17;0.20;;;0.20;;
13764;SDS011;6953;48.810;9.204;2023-04-06T07:47:43;0.25;;;0.25;;
13764;SDS011;6953;48.810;9.204;2023-04-06T07:50:08;0.20;;;0.20;;
13764;SDS011;6953;48.810;9.204;2023-04-06T07:52:34;0.20;;;0.20;;
13764;SDS011;6953;48.810;9.204;2023-04-06T07:54:59;0.20;;;0.20;;
13764;SDS011;6953;48.810;9.204;2023-04-06T07:57:25;0.20;;;0.20;;
13764;SDS011;6953;48.810;9.204;2023-04-06T07:59:50;0.20;;;0.20;;
13764;SDS011;6953;48.810;9.204;2023-04-06T08:02:16;0.20;;;0.20;;
13764;SDS011;6953;48.810;9.204;2023-04-06T08:04:42;0.20;;;0.20;;
13764;SDS011;6953;48.810;9.204;2023-04-06T08:07:07;0.20;;;0.20;;
13764;SDS011;6953;48.810;9.204;2023-04-06T08:09:33;0.10;;;0.10;;
13764;SDS011;6953;48.810;9.204;2023-04-06T08:11:58;0.20;;;0.20;;
13764;SDS011;6953;48.810;9.204;2023-04-06T08:14:23;0.10;;;0.10;;
13764;SDS011;6953;48.810;9.204;2023-04-06T08:16:49;0.20;;;0.20;;
13764;SDS011;6953;48.810;9.204;2023-04-06T08:19:14;0.20;;;0.20;;
13764;SDS011;6953;48.810;9.204;2023-04-06T08:21:42;0.20;;;0.20;;
13764;SDS011;6953;48.810;9.204;2023-04-06T08:24:08;0.15;;;0.15;;
13764;SDS011;6953;48.810;9.204;2023-04-06T08:26:33;0.10;;;0.10;;
13764;SDS011;6953;48.810;9.204;2023-04-06T08:28:58;0.10;;;0.10;;
13764;SDS011;6953;48.810;9.204;2023-04-06T08:31:24;0.10;;;0.10;;
13764;SDS011;6953;48.810;9.204;2023-04-06T08:33:49;0.10;;;0.10;;
13764;SDS011;6953;48.810;9.204;2023-04-06T08:36:15;0.10;;;0.10;;
13764;SDS011;6953;48.810;9.204;2023-04-06T08:38:41;0.10;;;0.10;;
13764;SDS011;6953;48.810;9.204;2023-04-06T08:41:11;0.10;;;0.10;;
13764;SDS011;6953;48.810;9.204;2023-04-06T08:46:11;0.10;;;0.10;;
13764;SDS011;6953;48.810;9.204;2023-04-06T08:48:38;0.10;;;0.10;;
13764;SDS011;6953;48.810;9.204;2023-04-06T08:51:05;0.10;;;0.10;;
13764;SDS011;6953;48.810;9.204;2023-04-06T08:53:31;0.10;;;0.10;;
13764;SDS011;6953;48.810;9.204;2023-04-06T08:55:56;0.10;;;0.10;;
13764;SDS011;6953;48.810;9.204;2023-04-06T08:58:23;0.10;;;0.10;;
13764;SDS011;6953;48.810;9.204;2023-04-06T09:00:50;0.10;;;0.10;;
13764;SDS011;6953;48.810;9.204;2023-04-06T09:03:16;0.10;;;0.10;;
13764;SDS011;6953;48.810;9.204;2023-04-06T09:05:43;0.10;;;0.10;;
13764;SDS011;6953;48.810;9.204;2023-04-06T09:08:10;0.10;;;0.10;;
13764;SDS011;6953;48.810;9.204;2023-04-06T09:10:35;0.10;;;0.10;;
13764;SDS011;6953;48.810;9.204;2023-04-06T09:13:05;0.00;;;0.00;;
13764;SDS011;6953;48.810;9.204;2023-04-06T09:15:31;0.10;;;0.10;;
13764;SDS011;6953;48.810;9.204;2023-04-06T09:17:57;0.10;;;0.10;;
13764;SDS011;6953;48.810;9.204;2023-04-06T09:20:23;0.00;;;0.00;;
13764;SDS011;6953;48.810;9.204;2023-04-06T09:22:55;0.10;;;0.10;;
13764;SDS011;6953;48.810;9.204;2023-04-06T09:25:22;0.00;;;0.00;;
13764;SDS011;6953;48.810;9.204;2023-04-06T09:27:49;0.10;;;0.10;;
13764;SDS011;6953;48.810;9.204;2023-04-06T09:30:31;0.10;;;0.10;;
13764;SDS011;6953;48.810;9.204;2023-04-06T09:32:57;0.10;;;0.10;;
13764;SDS011;6953;48.810;9.204;2023-04-06T09:35:24;0.10;;;0.10;;
13764;SDS011;6953;48.810;9.204;2023-04-06T09:37:52;0.10;;;0.10;;
13764;SDS011;6953;48.810;9.204;2023-04-06T09:40:18;0.10;;;0.10;;
13764;SDS011;6953;48.810;9.204;2023-04-06T09:42:47;0.10;;;0.10;;
13764;SDS011;6953;48.810;9.204;2023-04-06T09:45:17;0.10;;;0.10;;
13764;SDS011;6953;48.810;9.204;2023-04-06T09:47:43;0.10;;;0.10;;
13764;SDS011;6953;48.810;9.204;2023-04-06T09:50:10;0.10;;;0.10;;
13764;SDS011;6953;48.810;9.204;2023-04-06T09:52:39;0.10;;;0.10;;
13764;SDS011;6953;48.810;9.204;2023-04-06T09:55:08;0.10;;;0.10;;
13764;SDS011;6953;48.810;9.204;2023-04-06T10:00:17;0.10;;;0.10;;
13764;SDS011;6953;48.810;9.204;2023-04-06T10:05:42;0.10;;;0.10;;
13764;SDS011;6953;48.810;9.204;2023-04-06T10:08:11;0.10;;;0.10;;
13764;SDS011;6953;48.810;9.204;2023-04-06T10:10:38;0.10;;;0.10;;
13764;SDS011;6953;48.810;9.204;2023-04-06T10:13:04;0.00;;;0.00;;
13764;SDS011;6953;48.810;9.204;2023-04-06T10:15:30;0.10;;;0.10;;
13764;SDS011;6953;48.810;9.204;2023-04-06T10:17:57;0.10;;;0.10;;
13764;SDS011;6953;48.810;9.204;2023-04-06T10:20:31;0.10;;;0.10;;
13764;SDS011;6953;48.810;9.204;2023-04-06T10:23:06;0.10;;;0.10;;
13764;SDS011;6953;48.810;9.204;2023-04-06T10:25:39;0.10;;;0.10;;
13764;SDS011;6953;48.810;9.204;2023-04-06T10:28:05;0.00;;;0.00;;
13764;SDS011;6953;48.810;9.204;2023-04-06T10:30:32;0.10;;;0.10;;
13764;SDS011;6953;48.810;9.204;2023-04-06T10:33:19;0.10;;;0.10;;
13764;SDS011;6953;48.810;9.204;2023-04-06T10:35:45;0.10;;;0.10;;
13764;SDS011;6953;48.810;9.204;2023-04-06T10:38:11;0.10;;;0.10;;
13764;SDS011;6953;48.810;9.204;2023-04-06T10:40:39;0.00;;;0.00;;
13764;SDS011;6953;48.810;9.204;2023-04-06T10:43:09;0.00;;;0.00;;
13764;SDS011;6953;48.810;9.204;2023-04-06T10:45:39;0.10;;;0.10;;
13764;SDS011;6953;48.810;9.204;2023-04-06T10:48:15;0.00;;;0.00;;
13764;SDS011;6953;48.810;9.204;2023-04-06T10:50:47;0.10;;;0.10;;
13764;SDS011;6953;48.810;9.204;2023-04-06T10:53:23;0.00;;;0.00;;
13764;SDS011;6953;48.810;9.204;2023-04-06T10:55:50;0.00;;;0.00;;
13764;SDS011;6953;48.810;9.204;2023-04-06T10:58:16;0.10;;;0.10;;
13764;SDS011;6953;48.810;9.204;2023-04-06T11:00:48;0.08;;;0.08;;
13764;SDS011;6953;48.810;9.204;2023-04-06T11:03:14;0.00;;;0.00;;
13764;SDS011;6953;48.810;9.204;2023-04-06T11:05:44;0.00;;;0.00;;
13764;SDS011;6953;48.810;9.204;2023-04-06T11:08:10;0.00;;;0.00;;
13764;SDS011;6953;48.810;9.204;2023-04-06T11:10:46;0.10;;;0.10;;
13764;SDS011;6953;48.810;9.204;2023-04-06T11:13:12;0.00;;;0.00;;
13764;SDS011;6953;48.810;9.204;2023-04-06T11:15:37;0.00;;;0.00;;
13764;SDS011;6953;48.810;9.204;2023-04-06T11:18:05;0.08;;;0.08;;
13764;SDS011;6953;48.810;9.204;2023-04-06T11:20:31;0.00;;;0.00;;
13764;SDS011;6953;48.810;9.204;2023-04-06T11:22:56;0.00;;;0.00;;
13764;SDS011;6953;48.810;9.204;2023-04-06T11:25:23;0.10;;;0.10;;
13764;SDS011;6953;48.810;9.204;2023-04-06T11:27:49;0.00;;;0.00;;
13764;SDS011;6953;48.810;9.204;2023-04-06T11:30:15;0.00;;;0.00;;
13764;SDS011;6953;48.810;9.204;2023-04-06T11:32:41;0.10;;;0.10;;
13764;SDS011;6953;48.810;9.204;2023-04-06T11:35:27;0.00;;;0.00;;
13764;SDS011;6953;48.810;9.204;2023-04-06T11:37:56;0.03;;;0.03;;
13764;SDS011;6953;48.810;9.204;2023-04-06T11:40:22;0.03;;;0.03;;
13764;SDS011;6953;48.810;9.204;2023-04-06T11:42:54;0.10;;;0.10;;
13764;SDS011;6953;48.810;9.204;2023-04-06T11:45:20;0.00;;;0.00;;
13764;SDS011;6953;48.810;9.204;2023-04-06T11:47:54;0.00;;;0.00;;
13764;SDS011;6953;48.810;9.204;2023-04-06T11:50:21;0.00;;;0.00;;
13764;SDS011;6953;48.810;9.204;2023-04-06T11:52:46;0.00;;;0.00;;
13764;SDS011;6953;48.810;9.204;2023-04-06T11:55:24;0.00;;;0.00;;
13764;SDS011;6953;48.810;9.204;2023-04-06T11:57:49;0.00;;;0.00;;
13764;SDS011;6953;48.810;9.204;2023-04-06T12:00:16;0.00;;;0.00;;
13764;SDS011;6953;48.810;9.204;2023-04-06T12:02:45;0.10;;;0.10;;
13764;SDS011;6953;48.810;9.204;2023-04-06T12:05:11;0.00;;;0.00;;
13764;SDS011;6953;48.810;9.204;2023-04-06T12:07:36;0.00;;;0.00;;
13764;SDS011;6953;48.810;9.204;2023-04-06T12:10:02;0.03;;;0.03;;
13764;SDS011;6953;48.810;9.204;2023-04-06T12:12:28;0.00;;;0.00;;
13764;SDS011;6953;48.810;9.204;2023-04-06T12:14:54;0.00;;;0.00;;
13764;SDS011;6953;48.810;9.204;2023-04-06T12:17:20;0.00;;;0.00;;
13764;SDS011;6953;48.810;9.204;2023-04-06T12:19:45;0.00;;;0.00;;
13764;SDS011;6953;48.810;9.204;2023-04-06T12:22:11;0.00;;;0.00;;
13764;SDS011;6953;48.810;9.204;2023-04-06T12:24:36;0.10;;;0.10;;
13764;SDS011;6953;48.810;9.204;2023-04-06T12:27:02;0.10;;;0.10;;
13764;SDS011;6953;48.810;9.204;2023-04-06T12:29:28;0.10;;;0.10;;
13764;SDS011;6953;48.810;9.204;2023-04-06T12:31:53;0.10;;;0.10;;
13764;SDS011;6953;48.810;9.204;2023-04-06T12:34:18;0.00;;;0.00;;
13764;SDS011;6953;48.810;9.204;2023-04-06T12:36:44;0.10;;;0.10;;
13764;SDS011;6953;48.810;9.204;2023-04-06T12:39:09;0.00;;;0.00;;
13764;SDS011;6953;48.810;9.204;2023-04-06T12:41:36;0.10;;;0.10;;
13764;SDS011;6953;48.810;9.204;2023-04-06T12:44:01;0.00;;;0.00;;
13764;SDS011;6953;48.810;9.204;2023-04-06T12:46:27;0.00;;;0.00;;
13764;SDS011;6953;48.810;9.204;2023-04-06T12:48:52;0.00;;;0.00;;
13764;SDS011;6953;48.810;9.204;2023-04-06T12:51:21;0.00;;;0.00;;
13764;SDS011;6953;48.810;9.204;2023-04-06T12:53:47;0.00;;;0.00;;
13764;SDS011;6953;48.810;9.204;2023-04-06T12:56:13;0.00;;;0.00;;
13764;SDS011;6953;48.810;9.204;2023-04-06T12:58:43;0.00;;;0.00;;
13764;SDS011;6953;48.810;9.204;2023-04-06T13:01:09;0.00;;;0.00;;
13764;SDS011;6953;48.810;9.204;2023-04-06T13:03:37;0.00;;;0.00;;
13764;SDS011;6953;48.810;9.204;2023-04-06T13:06:03;0.00;;;0.00;;
13764;SDS011;6953;48.810;9.204;2023-04-06T13:08:29;0.10;;;0.10;;
13764;SDS011;6953;48.810;9.204;2023-04-06T13:10:54;0.00;;;0.00;;
13764;SDS011;6953;48.810;9.204;2023-04-06T13:13:24;0.10;;;0.10;;
13764;SDS011;6953;48.810;9.204;2023-04-06T13:15:50;0.00;;;0.00;;
13764;SDS011;6953;48.810;9.204;2023-04-06T13:18:16;0.00;;;0.00;;
13764;SDS011;6953;48.810;9.204;2023-04-06T13:20:42;0.00;;;0.00;;
13764;SDS011;6953;48.810;9.204;2023-04-06T13:23:07;0.10;;;0.10;;
13764;SDS011;6953;48.810;9.204;2023-04-06T13:25:33;0.10;;;0.10;;
13764;SDS011;6953;48.810;9.204;2023-04-06T13:27:58;0.10;;;0.10;;
13764;SDS011;6953;48.810;9.204;2023-04-06T13:30:24;0.10;;;0.10;;
13764;SDS011;6953;48.810;9.204;2023-04-06T13:32:50;0.10;;;0.10;;
13764;SDS011;6953;48.810;9.204;2023-04-06T13:35:15;0.10;;;0.10;;
13764;SDS011;6953;48.810;9.204;2023-04-06T13:37:41;0.10;;;0.10;;
13764;SDS011;6953;48.810;9.204;2023-04-06T13:40:08;0.10;;;0.10;;
13764;SDS011;6953;48.810;9.204;2023-04-06T13:42:34;0.10;;;0.10;;
13764;SDS011;6953;48.810;9.204;2023-04-06T13:45:00;0.10;;;0.10;;
13764;SDS011;6953;48.810;9.204;2023-04-06T13:47:26;0.10;;;0.10;;
13764;SDS011;6953;48.810;9.204;2023-04-06T13:49:52;0.10;;;0.10;;
13764;SDS011;6953;48.810;9.204;2023-04-06T13:52:18;0.10;;;0.10;;
13764;SDS011;6953;48.810;9.204;2023-04-06T13:54:44;0.10;;;0.10;;
13764;SDS011;6953;48.810;9.204;2023-04-06T13:57:10;0.20;;;0.20;;
13764;SDS011;6953;48.810;9.204;2023-04-06T13:59:36;0.10;;;0.10;;
13764;SDS011;6953;48.810;9.204;2023-04-06T14:02:02;0.20;;;0.20;;
13764;SDS011;6953;48.810;9.204;2023-04-06T14:04:28;0.20;;;0.20;;
13764;SDS011;6953;48.810;9.204;2023-04-06T14:06:56;0.20;;;0.20;;
13764;SDS011;6953;48.810;9.204;2023-04-06T14:09:22;0.10;;;0.10;;
13764;SDS011;6953;48.810;9.204;2023-04-06T14:11:48;0.10;;;0.10;;
13764;SDS011;6953;48.810;9.204;2023-04-06T14:14:14;0.10;;;0.10;;
13764;SDS011;6953;48.810;9.204;2023-04-06T14:16:40;0.10;;;0.10;;
13764;SDS011;6953;48.810;9.204;2023-04-06T14:19:08;0.20;;;0.20;;
13764;SDS011;6953;48.810;9.204;2023-04-06T14:21:34;0.20;;;0.20;;
13764;SDS011;6953;48.810;9.204;2023-04-06T14:23:59;0.15;;;0.15;;
13764;SDS011;6953;48.810;9.204;2023-04-06T14:26:25;0.20;;;0.20;;
13764;SDS011;6953;48.810;9.204;2023-04-06T14:28:51;0.20;;;0.20;;
13764;SDS011;6953;48.810;9.204;2023-04-06T14:31:16;0.20;;;0.20;;
13764;SDS011;6953;48.810;9.204;2023-04-06T14:33:42;0.20;;;0.20;;
13764;SDS011;6953;48.810;9.204;2023-04-06T14:36:07;0.20;;;0.20;;
13764;SDS011;6953;48.810;9.204;2023-04-06T14:38:33;0.20;;;0.20;;
13764;SDS011;6953;48.810;9.204;2023-04-06T14:40:59;0.20;;;0.20;;
13764;SDS011;6953;48.810;9.204;2023-04-06T14:43:25;0.20;;;0.20;;
13764;SDS011;6953;48.810;9.204;2023-04-06T14:45:51;0.20;;;0.20;;
13764;SDS011;6953;48.810;9.204;2023-04-06T14:48:16;0.20;;;0.20;;
13764;SDS011;6953;48.810;9.204;2023-04-06T14:50:51;0.20;;;0.20;;
13764;SDS011;6953;48.810;9.204;2023-04-06T14:53:19;0.20;;;0.20;;
13764;SDS011;6953;48.810;9.204;2023-04-06T14:55:45;0.20;;;0.20;;
13764;SDS011;6953;48.810;9.204;2023-04-06T14:58:10;0.20;;;0.20;;
13764;SDS011;6953;48.810;9.204;2023-04-06T15:00:37;0.30;;;0.30;;
13764;SDS011;6953;48.810;9.204;2023-04-06T15:03:03;0.20;;;0.20;;
13764;SDS011;6953;48.810;9.204;2023-04-06T15:05:29;0.20;;;0.20;;